Cactus Peak, Santa Catalina Island Weather observations

Data are for 10 minute period ending at time listed.
 Day   Time   Solar   Ave.   Ave.  Ave.  Vector    Max.   Stn.    Total
  of    of     Rad.   Air    Rel.  Wind   Wind     Wind   Baro.  Precip.
Year   Day            Temp.  Hum.  Speed  Dir.     Gust   Pres.         
2026   (PST)   W/m2    F      %     mph   deg.      mph    mb.     in.  
------------------------------------------------------------------------
 124   11:40  538.0    59   69.0    10    226.7    18.5    999.0   0.00  
 124   11:50  481.0    58   73.5    12    226.4    17.3    999.0   0.00  
 124   12:00  399.0    57   76.9    12    233.2    17.3    999.0   0.00  
 124   12:10  425.0    57   77.0    13    219.5    18.5    999.0   0.00  
 124   12:20  499.0    57   73.2    11    230.3    14.9    999.0   0.00  
 124   12:30  598.0    59   69.1    10    219.5    16.7    999.0   0.00  
 124   12:40  675.0    59   69.1    11    230.8    16.1    999.0   0.00  
 124   12:50  760.0    59   68.7    11    222.8    20.3    999.0   0.00  
 124   13:00  578.0    59   69.6    11    224.6    18.5    999.0   0.00  
 124   13:10  597.0    58   68.7    12    231.9    16.1    999.0   0.00  
 124   13:20  585.0    58   65.7     9    249.0    14.3    999.0   0.00  
 124   13:30  615.0    59   64.6     9    247.3    14.3    999.0   0.00  
 124   13:40  601.0    59   66.0    10    240.1    15.5    999.0   0.00  
 124   13:50  438.0    59   67.6    10    233.9    16.1    999.0   0.00  
 124   14:00  655.0    58   69.4     9    245.3    14.3    999.0   0.00  
 124   14:10  730.0    59   67.8     9    242.9    13.1    999.0   0.00  
 124   14:20  725.0    60   62.8     9    240.3    16.1    999.0   0.00  
 124   14:30  768.0    60   61.0    10    240.3    16.7    999.0   0.00  
 124   14:40  631.0    59   63.6     9    255.7    13.1    999.0   0.00  
 124   14:50  437.0    58   63.0     9    256.5    12.5    999.0   0.00  
 124   15:00  634.0    59   61.5     7    253.7    11.3    999.0   0.00  
 124   15:10  564.0    60   60.5    10    214.5    16.1    999.0   0.00  
 124   15:20  438.0    58   65.6     9    229.6    13.1    999.0   0.00  
 124   15:30  241.0    57   70.5     7    227.6    13.7    999.0   0.00  
 124   15:40  130.0    56   75.7    10    228.3    14.9    999.0   0.00  
 124   15:50  153.0    55   83.6     9    232.6    14.3    999.0   0.00  
 124   16:00  158.0    54   94.6    10    227.9    14.3    999.0   0.00  
 124   16:10   83.0    53   99.9     9    192.8    16.7    999.0   0.00  
 124   16:20   60.0    53   99.9    12    191.4    17.3    999.0   0.00  
 124   16:30   57.0    52   99.9    13    201.4    19.1    999.0   0.01  
 124   16:40  124.0    52   99.9     9    232.4    14.3    999.0   0.00  
 124   16:50   93.0    52   99.9     9    221.8    11.9    999.0   0.00  
 124   17:00   74.0    52   99.9     8    202.0    11.3    999.0   0.01  
 124   17:10   39.0    52   99.9     9    187.4    14.3    999.0   0.01  
 124   17:20   64.0    51   99.9     7    205.5    11.9    999.0   0.00  
 124   17:30   56.0    51   99.9     6    197.2     9.0    999.0   0.00  
 124   17:40   47.0    51   99.9     5    214.5     7.2    999.0   0.01  
 124   17:50   43.0    51   99.9     1    226.1     0.6    999.0   0.00  
 124   18:00   26.0    51   99.9     2    192.7     4.8    999.0   0.00  
 124   18:10   11.0    51   99.9     1    189.8     3.0    999.0   0.01  
 124   18:20    7.0    51   99.9     1    195.6     0.6    999.0   0.01  
 124   18:30    7.0    51   99.9     1    236.4     0.6    999.0   0.00  
 124   18:40    4.0    51   99.9     1    331.6     0.6    999.0   0.00  
 124   18:50    0.0    51   99.9     1     16.5     0.6    999.0   0.00  
 124   19:00    0.0    51   99.9     1     10.8     0.6    999.0   0.00  
 124   19:10    0.0    51   99.9     1      4.6     0.6    999.0   0.01  
 124   19:20    0.0    51   99.9     1    358.4     0.6    999.0   0.00  
 124   19:30    0.0    50   99.9     1      4.6     0.6    999.0   0.00  
 124   19:40    0.0    50   99.9     1    355.1     0.6    999.0   0.00  
 124   19:50    0.0    50   99.9     1    354.5     0.6    999.0   0.00  
 124   20:00    0.0    50   99.9     1    310.4     0.6    999.0   0.00  
 124   20:10    0.0    50   99.9     6    333.5    12.5    999.0   0.00  
 124   20:20    0.0    50   99.9    12      5.2    15.5    999.0   0.00  
 124   20:30    0.0    50   99.9     9    347.3    11.9    999.0   0.00  
 124   20:40    0.0    50   99.9     7    322.2    11.3    999.0   0.00  
 124   20:50    0.0    51   99.9     6    305.2     9.0    999.0   0.00  
 124   21:00    0.0    51   99.9     6    276.3     9.0    999.0   0.00  
 124   21:10    0.0    52   99.9     6    266.4     9.0    999.0   0.00  
 124   21:20    0.0    52   99.9     5    250.8     6.6    999.0   0.00  
 124   21:30    0.0    52   99.9     4    238.0     7.2    999.0   0.00  
 124   21:40    0.0    52   99.9     6    224.2     9.6    999.0   0.00  
 124   21:50    0.0    52   99.9     6    237.7    11.9    999.0   0.00  
 124   22:00    0.0    52   99.9     7    247.9    10.8    999.0   0.00  
 124   22:10    0.0    52   99.9     7    254.0    11.3    999.0   0.00  
 124   22:20    0.0    52   99.9     5    266.6     9.6    999.0   0.00  
 124   22:30    0.0    52   99.9     5    257.2     7.8    999.0   0.00  
 124   22:40    0.0    52   99.9     6    265.4    10.2    999.0   0.00  
 124   22:50    0.0    52   99.9     6    305.3     9.6    999.0   0.00  
 124   23:00    0.0    52   99.9     6    301.0    11.9    999.0   0.00  
 124   23:10    0.0    52   99.9     7    297.7    13.1    999.0   0.00  
 124   23:20    0.0    52   99.9     6    310.8     8.4    999.0   0.00  
 124   23:30    0.0    52   99.9     7    328.2    10.2    999.0   0.00  
 124   23:40    0.0    52   99.9     6    320.5     9.0    999.0   0.00  
 124   23:50    0.0    52   99.9     7    311.0    11.3    999.0   0.01  
 125    0:00    0.0    52   99.9     6    291.8    10.2    999.0   0.00  
 125    0:10    0.0    52   99.9     8    292.1    12.5    999.0   0.00  
 125    0:20    0.0    52   99.9     8    280.9    13.1    999.0   0.00  
 125    0:30    0.0    51   99.9     9    281.4    13.1    999.0   0.00  
 125    0:40    0.0    51   99.9     7    325.2    10.8    999.0   0.00  
 125    0:50    0.0    51   99.9     8    331.6    10.8    999.0   0.00  
 125    1:00    0.0    51   99.9     9    327.1    13.1    999.0   0.00  
 125    1:10    0.0    51   99.9     8    311.1    11.3    999.0   0.00  
 125    1:20    0.0    51   99.9     8    320.9    12.5    999.0   0.00  
 125    1:30    0.0    51   99.9    10    307.0    15.5    999.0   0.00  
 125    1:40    0.0    51   99.9    10    319.3    14.3    999.0   0.00  
 125    1:50    0.0    51   99.9    11    328.5    16.1    999.0   0.00  
 125    2:00    0.0    50   99.9    10    328.5    14.3    999.0   0.00  
 125    2:10    0.0    50   99.9    11    325.3    14.9    999.0   0.00  
 125    2:20    0.0    50   99.9    12    328.5    14.9    999.0   0.00  
 125    2:30    0.0    50   99.9    12    326.5    16.1    999.0   0.00  
 125    2:40    0.0    50   99.9    12    330.2    15.5    999.0   0.00  
 125    2:50    0.0    50   99.9    11    325.3    18.5    999.0   0.00  
 125    3:00    0.0    50   99.9    11    316.4    16.7    999.0   0.00  
 125    3:10    0.0    50   99.9    11    310.2    15.5    999.0   0.00  
 125    3:20    0.0    50   99.9    13    311.5    18.5    999.0   0.00  
 125    3:30    0.0    50   99.9    11    309.8    17.3    999.0   0.00  
 125    3:40    0.0    50   97.4    13    305.3    20.9    999.0   0.00  
 125    3:50    0.0    50   87.3    13    311.5    18.5    999.0   0.00  
 125    4:00    0.0    50   89.3    12    308.0    16.7    999.0   0.00  
 125    4:10    0.0    50   94.4    11    299.8    19.1    999.0   0.00  
 125    4:20    0.0    50   94.1    12    297.8    17.9    999.0   0.00  
 125    4:30    0.0    50   98.2    11    308.8    16.7    999.0   0.00  
 125    4:40    0.0    50   92.0    12    312.0    17.9    999.0   0.00  
 125    4:50    0.0    50   86.8    10    317.6    16.7    999.0   0.00  
 125    5:00    2.0    50   85.8    12    316.6    19.1    999.0   0.00  
 125    5:10    5.0    50   85.0    11    321.7    16.7    999.0   0.00  
 125    5:20   12.0    50   86.0    11    316.0    16.1    999.0   0.00  
 125    5:30   29.0    50   86.4    11    316.8    16.7    999.0   0.00  
 125    5:40   35.0    50   86.1    11    314.0    17.9    999.0   0.00  
 125    5:50   42.0    51   86.4    11    311.8    16.1    999.0   0.00  
 125    6:00   63.0    51   86.8    10    322.9    14.9    999.0   0.00  
 125    6:10   65.0    51   84.9    12    312.0    19.7    999.0   0.00  
 125    6:20   91.0    51   84.2    11    313.4    16.7    999.0   0.00  
 125    6:30  114.0    51   84.9    10    317.8    16.7    999.0   0.00  
 125    6:40  198.0    52   84.5    10    316.1    15.5    999.0   0.00  
 125    6:50  297.0    53   81.4    10    330.3    15.5    999.0   0.00  
 125    7:00  316.0    54   79.7    11    334.5    16.7    999.0   0.00  
 125    7:10  222.0    53   78.7    12    339.6    18.5    999.0   0.00  
 125    7:20  175.0    53   78.3    12    338.6    17.3    999.0   0.00  
 125    7:30  276.0    53   81.1     9    334.1    16.1    999.0   0.00  
 125    7:40  405.0    54   77.7    10    336.3    14.9    999.0   0.00  
 125    7:50  370.0    55   75.5     8    321.1    13.1    999.0   0.00  
 125    8:00  417.0    55   73.0     9    306.3    15.5    999.0   0.00  
 125    8:10  396.0    54   76.3    10    302.9    17.3    999.0   0.00  
 125    8:20  421.0    54   75.6    12    307.9    17.9    999.0   0.00  
 125    8:30  408.0    54   75.6    10    289.6    16.7    999.0   0.00  
 125    8:40  388.0    54   73.9    10    286.2    14.9    999.0   0.00  
 125    8:50  517.0    55   72.7    10    289.7    17.3    999.0   0.00  
 125    9:00  524.0    55   73.8    10    283.5    17.3    999.0   0.00  
 125    9:10  635.0    55   72.6    10    272.4    17.3    999.0   0.00  
 125    9:20  539.0    56   71.3     9    293.1    15.5    999.0   0.00  
 125    9:30  479.0    55   71.5    12    299.7    17.9    999.0   0.00  
 125    9:40  449.0    55   73.3    10    276.9    17.3    999.0   0.00  
 125    9:50  660.0    56   72.3    10    286.2    16.7    999.0   0.00  
 125   10:00  539.0    56   71.5    12    292.9    19.1    999.0   0.00  
 125   10:10  634.0    56   70.8    12    306.1    21.5    999.0   0.00  
 125   10:20  713.0    56   70.1    12    293.1    20.3    999.0   0.00  
 125   10:30  673.0    56   70.0    13    302.5    19.7    999.0   0.00  
 125   10:40  763.0    56   71.8    10    291.8    17.3    999.0   0.00  
 125   10:50  664.0    56   71.9    11    298.2    18.5    999.0   0.00  
 125   11:00  780.0    57   69.3    10    304.7    17.3    999.0   0.00  
 125   11:10  785.0    57   68.4    11    315.3    19.1    999.0   0.00  
 125   11:20  892.0    57   68.0    10    294.7    18.5    999.0   0.00  
 125   11:30  732.0    57   70.6    10    255.2    18.5    999.0   0.00  

Return to Cactus Peak graphs page.


Western Regional Climate Center,wrcc@dri.edu